createdAt,value
2022-12-07T00:01:35.258Z,83.91
2022-12-07T00:04:07.470Z,83.54
2022-12-07T00:06:43.177Z,83.42
2022-12-07T00:09:15.833Z,83.61
2022-12-07T00:11:43.446Z,83.58
2022-12-07T00:14:15.295Z,83.80
2022-12-07T00:16:42.590Z,83.54
2022-12-07T00:19:12.029Z,83.49
2022-12-07T00:21:39.173Z,83.78
2022-12-07T00:24:08.101Z,83.49
2022-12-07T00:26:37.905Z,83.44
2022-12-07T00:29:18.049Z,83.76
2022-12-07T00:31:45.318Z,83.67
2022-12-07T00:34:17.381Z,83.83
2022-12-07T00:36:44.559Z,83.85
2022-12-07T00:39:11.729Z,83.57
2022-12-07T00:41:38.832Z,83.88
2022-12-07T00:44:06.088Z,83.50
2022-12-07T00:46:33.307Z,83.37
2022-12-07T00:49:00.460Z,83.90
2022-12-07T00:51:27.586Z,83.63
2022-12-07T00:53:54.884Z,83.83
2022-12-07T00:56:27.905Z,83.80
2022-12-07T00:58:57.730Z,83.80
2022-12-07T01:01:26.387Z,83.76
2022-12-07T01:03:53.944Z,84.08
2022-12-07T01:06:22.681Z,83.42
2022-12-07T01:08:49.916Z,83.59
2022-12-07T01:11:19.277Z,83.77
2022-12-07T01:13:46.665Z,83.67
2022-12-07T01:16:16.975Z,83.60
2022-12-07T01:18:46.796Z,83.97
2022-12-07T01:21:20.190Z,83.75
2022-12-07T01:23:47.757Z,83.68
2022-12-07T01:26:17.226Z,83.80
2022-12-07T01:28:44.721Z,84.07
2022-12-07T01:31:16.172Z,83.59
2022-12-07T01:33:48.289Z,83.68
2022-12-07T01:36:24.044Z,83.91
2022-12-07T01:38:53.776Z,83.99
2022-12-07T01:41:22.463Z,84.15
2022-12-07T01:44:27.049Z,83.78
2022-12-07T01:46:57.015Z,83.94
2022-12-07T01:49:40.519Z,83.71
2022-12-07T01:52:24.740Z,83.68
2022-12-07T01:54:55.381Z,83.64
2022-12-07T01:57:22.749Z,83.65
2022-12-07T01:59:51.449Z,83.85
2022-12-07T02:02:30.131Z,83.84
2022-12-07T02:04:58.655Z,83.86
2022-12-07T02:07:26.478Z,83.87
2022-12-07T02:09:53.759Z,83.79
2022-12-07T02:12:22.060Z,83.88
2022-12-07T02:14:49.396Z,83.73
2022-12-07T02:17:19.525Z,83.79
2022-12-07T02:19:55.269Z,83.73
2022-12-07T02:22:22.462Z,84.09
2022-12-07T02:25:08.228Z,84.04
2022-12-07T02:27:51.338Z,84.00
2022-12-07T02:30:20.438Z,83.91
2022-12-07T02:32:50.602Z,83.94
2022-12-07T02:35:24.998Z,84.11
2022-12-07T02:38:13.566Z,84.09
2022-12-07T02:40:51.737Z,83.95
2022-12-07T02:43:26.718Z,84.14
2022-12-07T02:45:57.141Z,84.05
2022-12-07T02:48:24.862Z,84.37
2022-12-07T02:50:53.699Z,83.86
2022-12-07T02:53:41.305Z,84.08
2022-12-07T02:56:12.999Z,84.27
2022-12-07T02:58:52.286Z,84.15
2022-12-07T03:01:50.758Z,84.10
2022-12-07T03:04:44.576Z,83.96
2022-12-07T03:07:30.507Z,84.10
2022-12-07T03:10:18.974Z,84.33
2022-12-07T03:13:04.576Z,84.34
2022-12-07T03:15:46.645Z,84.14
2022-12-07T03:18:16.499Z,84.33
2022-12-07T03:20:44.696Z,84.39
2022-12-07T03:23:13.878Z,84.38
2022-12-07T03:25:42.903Z,84.31
2022-12-07T03:28:11.568Z,84.44
2022-12-07T03:30:47.664Z,84.31
2022-12-07T03:33:29.157Z,84.73
2022-12-07T03:36:18.736Z,84.72
2022-12-07T03:38:50.010Z,84.54
2022-12-07T03:41:24.651Z,84.51
2022-12-07T03:43:52.544Z,84.82
2022-12-07T03:46:38.216Z,84.57
2022-12-07T03:49:11.351Z,84.62
2022-12-07T03:51:56.342Z,84.79
2022-12-07T03:54:33.276Z,84.39
2022-12-07T03:57:01.170Z,84.60
2022-12-07T03:59:29.212Z,84.58
2022-12-07T04:01:58.587Z,84.65
2022-12-07T04:04:26.157Z,84.61
2022-12-07T04:06:53.343Z,84.56
2022-12-07T04:09:21.020Z,84.76
2022-12-07T04:11:48.118Z,84.77
2022-12-07T04:14:19.321Z,84.63
2022-12-07T04:16:47.273Z,84.88
2022-12-07T04:19:14.392Z,84.58
2022-12-07T04:21:41.850Z,84.69
2022-12-07T04:24:08.890Z,84.39
2022-12-07T04:26:36.673Z,84.42
2022-12-07T04:29:07.610Z,84.59
2022-12-07T04:31:35.793Z,84.60
2022-12-07T04:34:03.353Z,84.60
2022-12-07T04:36:30.509Z,84.82
2022-12-07T04:38:57.664Z,84.27
2022-12-07T04:41:28.044Z,84.43
2022-12-07T04:44:00.224Z,84.44
2022-12-07T04:46:28.270Z,84.37
2022-12-07T04:48:56.067Z,84.74
2022-12-07T04:51:25.604Z,84.46
2022-12-07T04:53:52.907Z,84.32
2022-12-07T04:56:20.326Z,84.77
2022-12-07T04:58:47.985Z,84.65
2022-12-07T05:01:16.804Z,84.67
2022-12-07T05:03:44.369Z,84.90
2022-12-07T05:06:13.848Z,84.71
2022-12-07T05:08:41.723Z,84.75
2022-12-07T05:11:09.782Z,84.87
2022-12-07T05:13:37.663Z,84.57
2022-12-07T05:16:04.924Z,84.70
2022-12-07T05:18:32.250Z,84.58
2022-12-07T05:20:59.237Z,84.96
2022-12-07T05:23:26.330Z,84.71
2022-12-07T05:25:53.402Z,84.69
2022-12-07T05:28:20.662Z,84.58
2022-12-07T05:30:47.554Z,84.66
2022-12-07T05:33:14.745Z,84.92
2022-12-07T05:35:41.680Z,84.69
2022-12-07T05:38:08.745Z,84.72
2022-12-07T05:40:35.722Z,84.45
2022-12-07T05:43:04.968Z,84.70
2022-12-07T05:45:32.524Z,84.55
2022-12-07T05:47:59.600Z,84.64
2022-12-07T05:50:26.747Z,85.02
2022-12-07T05:53:01.253Z,84.60
2022-12-07T05:55:28.493Z,84.77
2022-12-07T05:58:13.871Z,84.25
2022-12-07T06:00:41.189Z,84.56
2022-12-07T06:03:08.377Z,84.40
2022-12-07T06:05:35.994Z,84.58
2022-12-07T06:08:06.050Z,84.54
2022-12-07T06:10:33.509Z,84.75
2022-12-07T06:13:00.765Z,84.32
2022-12-07T06:15:28.126Z,84.28
2022-12-07T06:17:55.289Z,84.19
2022-12-07T06:20:22.370Z,84.33
2022-12-07T06:22:49.338Z,84.31
2022-12-07T06:25:16.723Z,84.12
2022-12-07T06:27:43.894Z,84.17
2022-12-07T06:30:11.149Z,84.47
2022-12-07T06:32:38.766Z,84.12
2022-12-07T06:35:06.290Z,84.38
2022-12-07T06:37:34.037Z,84.02
2022-12-07T06:40:01.455Z,84.04
2022-12-07T06:42:28.904Z,84.29
2022-12-07T06:44:55.957Z,84.36
2022-12-07T06:47:40.104Z,84.40
2022-12-07T06:50:08.861Z,84.30
2022-12-07T06:52:36.408Z,83.82
2022-12-07T06:55:07.661Z,84.07
2022-12-07T06:57:36.092Z,83.85
2022-12-07T07:00:08.033Z,84.05
2022-12-07T07:02:35.233Z,84.18
2022-12-07T07:05:06.442Z,83.55
2022-12-07T07:07:51.705Z,84.07
2022-12-07T07:10:25.010Z,83.65
2022-12-07T07:12:57.313Z,83.83
2022-12-07T07:15:25.222Z,83.75
2022-12-07T07:17:52.320Z,83.80
2022-12-07T07:20:19.478Z,83.90
2022-12-07T07:22:46.935Z,83.78
2022-12-07T07:25:15.906Z,83.95
2022-12-07T07:27:43.411Z,83.73
2022-12-07T07:30:11.749Z,83.75
2022-12-07T07:32:39.831Z,83.95
2022-12-07T07:35:10.031Z,83.85
2022-12-07T07:37:37.500Z,83.90
2022-12-07T07:40:05.414Z,83.91
2022-12-07T07:42:32.626Z,83.50
2022-12-07T07:44:59.553Z,83.38
2022-12-07T07:47:26.549Z,83.50
2022-12-07T07:49:53.605Z,83.32
2022-12-07T07:52:20.634Z,83.66
2022-12-07T07:54:48.089Z,83.76
2022-12-07T07:57:15.249Z,83.64
2022-12-07T07:59:42.358Z,83.60
2022-12-07T08:02:17.842Z,83.79
2022-12-07T08:04:45.572Z,83.47
2022-12-07T08:07:13.317Z,83.47
2022-12-07T08:09:40.546Z,83.64
2022-12-07T08:12:07.924Z,83.23
2022-12-07T08:14:35.457Z,83.33
2022-12-07T08:17:02.779Z,83.20
2022-12-07T08:19:30.228Z,83.36
2022-12-07T08:21:57.602Z,83.45
2022-12-07T08:24:26.369Z,83.21
2022-12-07T08:26:53.643Z,83.33
2022-12-07T08:29:21.008Z,83.10
2022-12-07T08:31:48.284Z,82.85
2022-12-07T08:34:15.808Z,83.18
2022-12-07T08:36:47.372Z,83.16
2022-12-07T08:39:32.380Z,83.13
2022-12-07T08:42:01.636Z,82.94
2022-12-07T08:44:29.017Z,83.00
2022-12-07T08:47:00.837Z,82.90
2022-12-07T08:49:37.710Z,82.91
2022-12-07T08:52:06.104Z,82.97
2022-12-07T08:54:35.859Z,82.73
2022-12-07T08:57:03.125Z,82.74
2022-12-07T08:59:30.605Z,82.59
2022-12-07T09:01:58.660Z,82.58
2022-12-07T09:04:26.223Z,82.69
2022-12-07T09:06:56.266Z,82.45
2022-12-07T09:09:23.561Z,82.53
2022-12-07T09:11:50.705Z,82.06
2022-12-07T09:14:24.315Z,82.32
2022-12-07T09:16:55.743Z,82.29
2022-12-07T09:19:24.635Z,82.13
2022-12-07T09:21:52.965Z,82.18
2022-12-07T09:24:24.072Z,82.16
2022-12-07T09:26:51.406Z,82.20
2022-12-07T09:29:19.899Z,82.24
2022-12-07T09:31:47.102Z,82.04
2022-12-07T09:34:14.651Z,81.61
2022-12-07T09:36:43.586Z,81.84
2022-12-07T09:39:15.285Z,81.73
2022-12-07T09:41:45.056Z,81.85
2022-12-07T09:44:15.960Z,81.77
2022-12-07T09:46:45.775Z,81.76
2022-12-07T09:49:19.535Z,82.13
2022-12-07T09:51:47.789Z,81.55
2022-12-07T09:54:17.002Z,81.88
2022-12-07T09:56:45.223Z,81.53
2022-12-07T09:59:19.422Z,81.47
2022-12-07T10:01:51.472Z,81.47
2022-12-07T10:04:24.287Z,81.79
2022-12-07T10:06:52.400Z,81.47
2022-12-07T10:09:21.575Z,81.26
2022-12-07T10:12:11.871Z,81.35
2022-12-07T10:15:06.827Z,81.47
2022-12-07T10:17:37.323Z,81.70
2022-12-07T10:20:26.122Z,81.38
2022-12-07T10:23:01.754Z,81.58
2022-12-07T10:25:41.845Z,81.37
2022-12-07T10:28:10.165Z,81.21
2022-12-07T10:31:16.959Z,81.43
2022-12-07T10:34:01.356Z,81.36
2022-12-07T10:36:40.771Z,81.02
2022-12-07T10:39:20.066Z,80.87
2022-12-07T10:42:07.148Z,80.96
2022-12-07T10:44:44.321Z,81.13
2022-12-07T10:47:56.234Z,80.82
2022-12-07T10:50:54.424Z,81.01
2022-12-07T10:53:27.780Z,80.83
2022-12-07T10:56:07.701Z,80.69
2022-12-07T10:58:43.715Z,80.70
2022-12-07T11:01:10.721Z,80.68
2022-12-07T11:04:07.958Z,80.82
2022-12-07T11:06:46.845Z,80.44
2022-12-07T11:10:18.596Z,80.55
2022-12-07T11:12:58.049Z,80.52
2022-12-07T11:15:46.357Z,80.54
2022-12-07T11:18:26.138Z,80.37
2022-12-07T11:21:17.703Z,80.35
2022-12-07T11:23:50.697Z,80.35
2022-12-07T11:26:39.299Z,80.21
2022-12-07T11:29:25.960Z,80.38
2022-12-07T11:31:55.929Z,80.33
2022-12-07T11:34:34.948Z,80.17
2022-12-07T11:37:05.269Z,79.77
2022-12-07T11:39:38.536Z,80.01
2022-12-07T11:42:10.848Z,80.05
2022-12-07T11:45:05.112Z,79.89
2022-12-07T11:47:50.620Z,79.80
2022-12-07T11:50:42.778Z,79.85
2022-12-07T11:53:09.777Z,79.77
2022-12-07T11:55:54.288Z,79.65
2022-12-07T11:59:00.508Z,79.62
2022-12-07T12:01:39.729Z,79.86
2022-12-07T12:04:12.656Z,79.59
2022-12-07T12:06:44.798Z,79.48
2022-12-07T12:09:39.712Z,79.66
2022-12-07T12:15:27.416Z,79.76
2022-12-07T12:18:28.820Z,79.59
2022-12-07T12:21:21.319Z,79.59
2022-12-07T12:24:04.361Z,79.45
2022-12-07T12:26:34.451Z,79.36
2022-12-07T12:29:04.125Z,79.38
2022-12-07T12:31:43.341Z,79.53
2022-12-07T12:34:35.450Z,79.12
2022-12-07T12:37:02.699Z,79.48
2022-12-07T12:39:30.200Z,79.49
2022-12-07T12:41:58.871Z,79.59
2022-12-07T12:44:34.861Z,79.10
2022-12-07T12:47:39.601Z,79.14
2022-12-07T12:50:29.877Z,79.22
2022-12-07T12:53:07.387Z,79.20
2022-12-07T12:56:12.198Z,79.38
2022-12-07T12:58:42.349Z,79.21
2022-12-07T13:01:41.701Z,79.29
2022-12-07T13:04:48.814Z,79.46
2022-12-07T13:07:46.037Z,79.26
2022-12-07T13:10:25.937Z,79.42
2022-12-07T13:13:06.749Z,79.02
2022-12-07T13:15:41.901Z,79.20
2022-12-07T13:18:31.152Z,78.93
2022-12-07T13:21:21.071Z,79.00
2022-12-07T13:23:49.500Z,78.99
2022-12-07T13:26:38.715Z,79.02
2022-12-07T13:29:11.691Z,78.94
2022-12-07T13:31:52.269Z,78.69
2022-12-07T13:34:41.758Z,78.80
2022-12-07T13:37:37.947Z,79.26
2022-12-07T13:40:20.351Z,78.84
2022-12-07T13:42:47.676Z,79.17
2022-12-07T13:45:48.334Z,78.83
2022-12-07T13:48:43.678Z,78.72
2022-12-07T13:51:19.795Z,78.87
2022-12-07T13:53:56.429Z,79.01
2022-12-07T13:56:28.929Z,78.53
2022-12-07T13:58:56.458Z,78.59
2022-12-07T14:01:23.563Z,78.99
2022-12-07T14:03:50.690Z,78.58
2022-12-07T14:06:29.247Z,78.86
2022-12-07T14:09:10.446Z,78.86
2022-12-07T14:11:38.838Z,78.93
2022-12-07T14:14:06.431Z,78.61
2022-12-07T14:16:38.464Z,78.69
2022-12-07T14:19:07.689Z,78.82
2022-12-07T14:21:35.479Z,78.74
2022-12-07T14:24:19.415Z,78.82
2022-12-07T14:26:48.722Z,78.49
2022-12-07T14:29:34.371Z,78.54
2022-12-07T14:32:24.878Z,78.74
2022-12-07T14:34:56.110Z,78.50
2022-12-07T14:37:23.358Z,78.68
2022-12-07T14:39:50.858Z,78.91
2022-12-07T14:42:18.830Z,79.01
2022-12-07T14:44:47.300Z,78.73
2022-12-07T14:50:05.105Z,78.61
2022-12-07T14:55:39.992Z,78.64
2022-12-07T14:58:07.450Z,78.71
2022-12-07T15:00:35.375Z,78.70
2022-12-07T15:03:02.549Z,78.66
2022-12-07T15:05:29.626Z,78.33
2022-12-07T15:07:57.099Z,78.64
2022-12-07T15:10:31.269Z,78.45
2022-12-07T15:13:21.399Z,78.52
2022-12-07T15:15:50.164Z,78.64
2022-12-07T15:18:18.541Z,78.56
2022-12-07T15:20:46.996Z,78.36
2022-12-07T15:23:14.321Z,78.85
2022-12-07T15:25:46.190Z,78.56
2022-12-07T15:28:13.129Z,78.32
2022-12-07T15:30:42.127Z,78.55
2022-12-07T15:33:09.425Z,78.84
2022-12-07T15:35:41.244Z,78.67
2022-12-07T15:38:08.108Z,78.37
2022-12-07T15:40:36.931Z,78.55
2022-12-07T15:43:27.103Z,78.51
2022-12-07T15:45:55.733Z,78.42
2022-12-07T15:48:30.116Z,78.54
2022-12-07T15:51:09.425Z,78.82
2022-12-07T15:53:36.797Z,78.25
2022-12-07T15:56:07.919Z,78.65
2022-12-07T15:58:36.124Z,78.49
2022-12-07T16:01:12.303Z,78.63
2022-12-07T16:03:39.468Z,78.54
2022-12-07T16:06:07.039Z,78.45
2022-12-07T16:08:36.668Z,78.18
2022-12-07T16:11:07.722Z,78.49
2022-12-07T16:13:35.340Z,78.26
2022-12-07T16:16:07.579Z,78.42
2022-12-07T16:18:35.162Z,78.76
2022-12-07T16:21:02.314Z,78.61
2022-12-07T16:23:29.459Z,78.33
2022-12-07T16:25:57.454Z,78.82
2022-12-07T16:28:24.376Z,78.56
2022-12-07T16:31:11.135Z,78.29
2022-12-07T16:33:39.513Z,78.62
2022-12-07T16:36:07.825Z,78.43
2022-12-07T16:38:36.695Z,79.03
2022-12-07T16:41:04.111Z,78.76
2022-12-07T16:43:31.226Z,78.83
2022-12-07T16:45:58.287Z,79.11
2022-12-07T16:48:25.350Z,78.86
2022-12-07T16:50:54.899Z,78.75
2022-12-07T16:53:23.456Z,78.92
2022-12-07T16:55:51.368Z,78.79
2022-12-07T16:58:19.031Z,78.85
2022-12-07T17:00:47.091Z,78.76
2022-12-07T17:03:20.445Z,79.25
2022-12-07T17:05:48.568Z,79.40
2022-12-07T17:08:16.121Z,79.16
2022-12-07T17:10:45.818Z,79.14
2022-12-07T17:13:31.678Z,79.33
2022-12-07T17:16:07.088Z,79.15
2022-12-07T17:18:36.459Z,79.36
2022-12-07T17:21:05.931Z,79.52
2022-12-07T17:23:33.919Z,79.26
2022-12-07T17:26:16.128Z,79.27
2022-12-07T17:28:44.104Z,79.55
2022-12-07T17:31:13.526Z,79.54
2022-12-07T17:33:40.688Z,79.45
2022-12-07T17:36:21.899Z,79.53
2022-12-07T17:38:50.076Z,79.36
2022-12-07T17:41:39.015Z,79.47
2022-12-07T17:44:08.628Z,79.46
2022-12-07T17:46:35.900Z,79.48
2022-12-07T17:49:03.991Z,79.85
2022-12-07T17:51:51.635Z,79.94
2022-12-07T17:54:21.047Z,79.56
2022-12-07T17:56:53.408Z,79.59
2022-12-07T17:59:20.677Z,79.56
2022-12-07T18:01:48.025Z,79.55
2022-12-07T18:04:15.486Z,79.59
2022-12-07T18:06:46.206Z,79.96
2022-12-07T18:09:16.097Z,80.05
2022-12-07T18:11:43.266Z,79.87
2022-12-07T18:14:10.431Z,80.15
2022-12-07T18:16:37.648Z,79.82
2022-12-07T18:19:06.787Z,79.93
2022-12-07T18:21:34.172Z,79.72
2022-12-07T18:24:03.449Z,80.11
2022-12-07T18:26:33.807Z,80.00
2022-12-07T18:29:01.250Z,80.20
2022-12-07T18:31:30.199Z,79.97
2022-12-07T18:34:09.044Z,80.13
2022-12-07T18:36:36.902Z,80.00
2022-12-07T18:39:07.664Z,79.92
2022-12-07T18:41:34.841Z,79.96
2022-12-07T18:44:04.344Z,79.83
2022-12-07T18:46:32.249Z,80.07
2022-12-07T18:49:00.979Z,79.93
2022-12-07T18:51:32.624Z,79.77
2022-12-07T18:54:03.657Z,80.05
2022-12-07T18:56:34.183Z,80.11
2022-12-07T18:59:23.074Z,80.17
2022-12-07T19:01:53.043Z,80.08
2022-12-07T19:04:21.330Z,80.03
2022-12-07T19:06:50.387Z,80.37
2022-12-07T19:09:21.206Z,80.05
2022-12-07T19:11:52.101Z,80.29
2022-12-07T19:14:29.655Z,80.33
2022-12-07T19:17:00.659Z,80.06
2022-12-07T19:19:50.945Z,80.03
2022-12-07T19:22:23.964Z,80.12
2022-12-07T19:24:56.168Z,79.96
2022-12-07T19:27:24.029Z,80.09
2022-12-07T19:29:51.892Z,80.31
2022-12-07T19:32:19.090Z,80.19
2022-12-07T19:34:48.157Z,79.88
2022-12-07T19:37:17.714Z,80.38
2022-12-07T19:39:46.940Z,80.05
2022-12-07T19:42:16.404Z,79.95
2022-12-07T19:44:44.431Z,80.04
2022-12-07T19:47:12.478Z,80.16
2022-12-07T19:49:40.225Z,80.38
2022-12-07T19:52:08.593Z,80.14
2022-12-07T19:54:38.288Z,79.99
2022-12-07T19:57:07.947Z,79.90
2022-12-07T19:59:35.638Z,80.05
2022-12-07T20:02:03.281Z,80.23
2022-12-07T20:04:42.413Z,80.05
2022-12-07T20:07:12.568Z,80.40
2022-12-07T20:09:44.799Z,80.22
2022-12-07T20:12:30.470Z,80.19
2022-12-07T20:14:57.701Z,80.17
2022-12-07T20:17:24.762Z,80.09
2022-12-07T20:19:51.747Z,80.27
2022-12-07T20:22:18.861Z,80.17
2022-12-07T20:24:45.989Z,79.99
2022-12-07T20:27:13.129Z,80.25
2022-12-07T20:29:40.227Z,80.27
2022-12-07T20:32:07.421Z,80.28
2022-12-07T20:34:34.336Z,79.90
2022-12-07T20:37:01.444Z,80.47
2022-12-07T20:39:28.560Z,80.16
2022-12-07T20:42:14.044Z,80.46
2022-12-07T20:44:41.208Z,80.25
2022-12-07T20:47:08.298Z,80.16
2022-12-07T20:49:35.497Z,80.11
2022-12-07T20:52:04.150Z,80.56
2022-12-07T20:54:32.064Z,80.44
2022-12-07T20:57:00.137Z,80.42
2022-12-07T20:59:27.500Z,80.25
2022-12-07T21:01:54.695Z,80.20
2022-12-07T21:04:22.147Z,80.31
2022-12-07T21:06:49.132Z,80.30
2022-12-07T21:09:16.205Z,80.20
2022-12-07T21:11:43.182Z,80.19
2022-12-07T21:14:10.335Z,80.51
2022-12-07T21:16:37.518Z,80.39
2022-12-07T21:19:05.188Z,80.07
2022-12-07T21:21:33.312Z,80.29
2022-12-07T21:24:02.903Z,80.10
2022-12-07T21:26:34.075Z,80.09
2022-12-07T21:29:02.394Z,80.10
2022-12-07T21:31:29.511Z,80.29
2022-12-07T21:33:56.566Z,80.02
2022-12-07T21:36:26.093Z,80.13
2022-12-07T21:38:53.822Z,79.94
2022-12-07T21:41:24.058Z,79.84
2022-12-07T21:43:51.611Z,80.01
2022-12-07T21:46:20.136Z,80.00
2022-12-07T21:48:54.631Z,80.14
2022-12-07T21:51:22.520Z,79.66
2022-12-07T21:53:50.372Z,79.63
2022-12-07T21:56:21.043Z,80.03
2022-12-07T21:58:48.992Z,79.82
2022-12-07T22:01:21.881Z,79.82
2022-12-07T22:03:49.306Z,79.85
2022-12-07T22:06:18.480Z,80.11
2022-12-07T22:08:45.648Z,79.73
2022-12-07T22:11:13.914Z,80.18
2022-12-07T22:14:04.121Z,79.88
2022-12-07T22:16:35.097Z,79.93
2022-12-07T22:19:02.585Z,80.17
2022-12-07T22:21:30.208Z,79.69
2022-12-07T22:23:57.456Z,80.09
2022-12-07T22:26:24.857Z,79.60
2022-12-07T22:28:51.915Z,80.06
2022-12-07T22:31:20.247Z,79.98
2022-12-07T22:33:47.938Z,80.02
2022-12-07T22:36:15.316Z,79.65
2022-12-07T22:38:43.042Z,79.82
2022-12-07T22:41:31.510Z,79.96
2022-12-07T22:43:59.732Z,80.10
2022-12-07T22:46:27.168Z,79.82
2022-12-07T22:48:54.249Z,79.93
2022-12-07T22:51:29.146Z,79.86
2022-12-07T22:53:59.514Z,79.96
2022-12-07T22:56:27.725Z,79.84
2022-12-07T22:58:55.096Z,79.92
2022-12-07T23:01:23.352Z,79.81
2022-12-07T23:03:51.213Z,79.82
2022-12-07T23:06:23.701Z,80.01
2022-12-07T23:08:51.227Z,80.16
2022-12-07T23:11:40.100Z,80.02
2022-12-07T23:14:12.243Z,80.30
2022-12-07T23:16:39.746Z,79.87
2022-12-07T23:19:06.932Z,79.85
2022-12-07T23:21:34.301Z,80.06
2022-12-07T23:24:01.817Z,80.02
2022-12-07T23:26:28.930Z,79.90
2022-12-07T23:28:56.140Z,80.15
2022-12-07T23:31:23.243Z,80.12
2022-12-07T23:33:50.327Z,80.00
2022-12-07T23:36:20.590Z,79.88
2022-12-07T23:38:52.106Z,80.12
2022-12-07T23:41:24.112Z,80.11
2022-12-07T23:43:51.368Z,80.18
2022-12-07T23:46:20.155Z,80.11
2022-12-07T23:48:48.623Z,80.08
2022-12-07T23:51:16.374Z,80.21
2022-12-07T23:53:46.188Z,80.33
2022-12-07T23:56:15.305Z,80.09
2022-12-07T23:58:42.660Z,80.32
